createdAt,value
2023-05-16T00:00:58.495Z,12.00
2023-05-16T00:03:27.055Z,11.98
2023-05-16T00:05:56.163Z,11.86
2023-05-16T00:08:24.028Z,11.77
2023-05-16T00:10:54.909Z,11.76
2023-05-16T00:13:25.823Z,11.78
2023-05-16T00:15:56.189Z,11.78
2023-05-16T00:18:26.179Z,11.76
2023-05-16T00:20:54.818Z,11.61
2023-05-16T00:23:22.949Z,11.70
2023-05-16T00:25:50.994Z,11.72
2023-05-16T00:28:18.857Z,11.59
2023-05-16T00:30:46.668Z,11.69
2023-05-16T00:33:15.686Z,11.62
2023-05-16T00:35:43.577Z,11.64
2023-05-16T00:38:11.501Z,11.53
2023-05-16T00:40:39.439Z,11.61
2023-05-16T00:43:07.605Z,11.59
2023-05-16T00:45:35.430Z,11.55
2023-05-16T00:48:04.016Z,11.46
2023-05-16T00:50:34.641Z,11.38
2023-05-16T00:53:02.314Z,11.39
2023-05-16T00:55:29.965Z,11.32
2023-05-16T00:57:58.311Z,11.21
2023-05-16T01:00:26.293Z,11.19
2023-05-16T01:02:54.162Z,11.21
2023-05-16T01:05:22.179Z,11.15
2023-05-16T01:07:51.171Z,11.13
2023-05-16T01:10:18.966Z,11.19
2023-05-16T01:12:50.305Z,11.20
2023-05-16T01:15:22.433Z,11.19
2023-05-16T01:17:59.251Z,11.19
2023-05-16T01:20:35.386Z,11.18
2023-05-16T01:23:19.322Z,11.20
2023-05-16T01:25:58.574Z,11.20
2023-05-16T01:28:28.814Z,11.15
2023-05-16T01:30:56.803Z,11.14
2023-05-16T01:33:25.029Z,11.15
2023-05-16T01:35:59.195Z,11.18
2023-05-16T01:38:28.724Z,11.13
2023-05-16T01:41:01.213Z,11.07
2023-05-16T01:43:35.505Z,11.02
2023-05-16T01:46:10.724Z,10.92
2023-05-16T01:48:44.467Z,10.90
2023-05-16T01:51:13.442Z,10.92
2023-05-16T01:53:41.278Z,10.85
2023-05-16T01:56:12.720Z,10.83
2023-05-16T01:58:43.523Z,10.81
2023-05-16T02:01:11.668Z,10.74
2023-05-16T02:03:39.924Z,10.79
2023-05-16T02:06:08.251Z,10.77
2023-05-16T02:08:36.269Z,10.67
2023-05-16T02:11:04.277Z,10.71
2023-05-16T02:13:32.407Z,10.63
2023-05-16T02:16:01.857Z,10.68
2023-05-16T02:18:29.697Z,10.71
2023-05-16T02:20:57.698Z,10.70
2023-05-16T02:23:25.757Z,10.62
2023-05-16T02:25:53.601Z,10.79
2023-05-16T02:28:21.641Z,10.70
2023-05-16T02:30:58.293Z,10.66
2023-05-16T02:33:28.297Z,10.69
2023-05-16T02:35:56.364Z,10.70
2023-05-16T02:38:24.250Z,10.77
2023-05-16T02:40:52.181Z,10.76
2023-05-16T02:43:20.083Z,10.72
2023-05-16T02:45:48.123Z,10.80
2023-05-16T02:48:16.034Z,10.79
2023-05-16T02:50:45.331Z,10.71
2023-05-16T02:53:13.841Z,10.78
2023-05-16T02:55:42.092Z,10.76
2023-05-16T02:58:09.981Z,10.78
2023-05-16T03:00:37.742Z,10.77
2023-05-16T03:03:06.036Z,10.76
2023-05-16T03:05:33.962Z,10.79
2023-05-16T03:08:03.143Z,10.76
2023-05-16T03:10:31.028Z,10.78
2023-05-16T03:12:58.924Z,10.70
2023-05-16T03:15:26.889Z,10.82
2023-05-16T03:17:55.025Z,10.72
2023-05-16T03:20:23.352Z,10.65
2023-05-16T03:22:51.132Z,10.72
2023-05-16T03:25:20.394Z,10.60
2023-05-16T03:27:48.468Z,10.59
2023-05-16T03:30:17.330Z,10.61
2023-05-16T03:32:46.671Z,10.56
2023-05-16T03:35:14.754Z,10.60
2023-05-16T03:37:42.661Z,10.56
2023-05-16T03:40:12.092Z,10.49
2023-05-16T03:42:41.381Z,10.53
2023-05-16T03:45:10.087Z,10.57
2023-05-16T03:47:38.022Z,10.49
2023-05-16T03:50:07.235Z,10.51
2023-05-16T03:52:35.225Z,10.54
2023-05-16T03:55:03.952Z,10.48
2023-05-16T03:57:33.396Z,10.49
2023-05-16T04:00:04.247Z,10.40
2023-05-16T04:02:32.244Z,10.34
2023-05-16T04:05:00.188Z,10.46
2023-05-16T04:07:28.335Z,10.55
2023-05-16T04:09:58.838Z,10.43
2023-05-16T04:12:26.949Z,10.41
2023-05-16T04:14:54.767Z,10.45
2023-05-16T04:17:24.042Z,10.39
2023-05-16T04:19:51.924Z,10.39
2023-05-16T04:22:19.851Z,10.42
2023-05-16T04:24:47.671Z,10.39
2023-05-16T04:27:15.867Z,10.49
2023-05-16T04:29:44.375Z,10.49
2023-05-16T04:32:12.539Z,10.39
2023-05-16T04:34:44.167Z,10.48
2023-05-16T04:37:11.875Z,10.47
2023-05-16T04:39:39.670Z,10.51
2023-05-16T04:42:07.755Z,10.56
2023-05-16T04:44:35.425Z,10.61
2023-05-16T04:47:03.001Z,10.57
2023-05-16T04:49:30.749Z,10.59
2023-05-16T04:51:59.647Z,10.60
2023-05-16T04:54:27.391Z,10.57
2023-05-16T04:56:54.959Z,10.65
2023-05-16T04:59:22.577Z,10.62
2023-05-16T05:01:50.166Z,10.63
2023-05-16T05:04:18.220Z,10.67
2023-05-16T05:06:45.814Z,10.73
2023-05-16T05:09:14.737Z,10.79
2023-05-16T05:11:42.325Z,10.85
2023-05-16T05:14:09.932Z,10.92
2023-05-16T05:16:38.120Z,10.89
2023-05-16T05:19:05.790Z,11.03
2023-05-16T05:21:33.386Z,11.02
2023-05-16T05:24:00.950Z,10.87
2023-05-16T05:26:29.963Z,10.81
2023-05-16T05:29:05.306Z,11.10
2023-05-16T05:31:34.894Z,11.22
2023-05-16T05:34:03.137Z,11.05
2023-05-16T05:36:30.907Z,11.14
2023-05-16T05:38:58.785Z,11.20
2023-05-16T05:41:26.745Z,11.12
2023-05-16T05:43:55.734Z,11.09
2023-05-16T05:46:23.713Z,11.21
2023-05-16T05:48:51.496Z,11.17
2023-05-16T05:51:19.217Z,11.24
2023-05-16T05:53:46.837Z,11.14
2023-05-16T05:56:14.496Z,11.22
2023-05-16T05:58:42.504Z,11.27
2023-05-16T06:01:11.654Z,11.40
2023-05-16T06:03:39.614Z,11.26
2023-05-16T06:06:10.256Z,11.28
2023-05-16T06:08:38.593Z,11.35
2023-05-16T06:11:06.261Z,11.23
2023-05-16T06:13:33.833Z,11.24
2023-05-16T06:16:01.518Z,11.27
2023-05-16T06:18:30.802Z,11.14
2023-05-16T06:20:58.973Z,11.16
2023-05-16T06:23:27.207Z,11.33
2023-05-16T06:25:54.823Z,11.29
2023-05-16T06:28:22.429Z,11.12
2023-05-16T06:30:51.775Z,11.09
2023-05-16T06:33:19.475Z,11.05
2023-05-16T06:35:48.706Z,11.09
2023-05-16T06:38:16.743Z,10.97
2023-05-16T06:40:44.370Z,11.03
2023-05-16T06:43:12.675Z,11.02
2023-05-16T06:45:40.506Z,11.18
2023-05-16T06:48:09.049Z,11.10
2023-05-16T06:50:36.770Z,11.18
2023-05-16T06:53:07.297Z,11.16
2023-05-16T06:55:35.028Z,11.12
2023-05-16T06:58:02.718Z,11.04
2023-05-16T07:00:30.597Z,11.09
2023-05-16T07:02:58.278Z,11.20
2023-05-16T07:05:26.066Z,11.28
2023-05-16T07:07:53.850Z,11.12
2023-05-16T07:10:23.142Z,11.13
2023-05-16T07:12:51.022Z,11.27
2023-05-16T07:15:18.655Z,11.30
2023-05-16T07:17:46.366Z,11.32
2023-05-16T07:20:14.785Z,11.30
2023-05-16T07:22:42.450Z,11.30
2023-05-16T07:25:12.710Z,11.23
2023-05-16T07:27:44.687Z,11.30
2023-05-16T07:30:13.974Z,11.27
2023-05-16T07:32:42.601Z,11.26
2023-05-16T07:35:11.067Z,11.10
2023-05-16T07:37:41.437Z,11.08
2023-05-16T07:40:10.373Z,11.18
2023-05-16T07:42:38.051Z,11.10
2023-05-16T07:45:08.434Z,11.17
2023-05-16T07:47:36.300Z,10.97
2023-05-16T07:50:04.296Z,11.00
2023-05-16T07:52:31.981Z,10.99
2023-05-16T07:54:59.617Z,11.01
2023-05-16T07:57:27.473Z,10.99
2023-05-16T07:59:55.138Z,11.01
2023-05-16T08:02:26.284Z,10.85
2023-05-16T08:04:54.129Z,10.76
2023-05-16T08:07:22.209Z,10.79
2023-05-16T08:09:49.820Z,10.62
2023-05-16T08:12:17.543Z,10.68
2023-05-16T08:14:45.203Z,10.72
2023-05-16T08:17:12.972Z,10.67
2023-05-16T08:19:41.998Z,10.62
2023-05-16T08:22:10.480Z,10.58
2023-05-16T08:24:38.142Z,10.65
2023-05-16T08:27:06.383Z,10.53
2023-05-16T08:29:33.980Z,10.26
2023-05-16T08:32:02.021Z,10.50
2023-05-16T08:34:32.186Z,10.48
2023-05-16T08:37:01.460Z,10.36
2023-05-16T08:39:30.587Z,10.39
2023-05-16T08:41:58.913Z,10.44
2023-05-16T08:44:26.650Z,10.51
2023-05-16T08:46:55.103Z,10.41
2023-05-16T08:49:22.826Z,10.29
2023-05-16T08:51:52.850Z,10.24
2023-05-16T08:54:22.694Z,10.22
2023-05-16T08:56:51.260Z,10.10
2023-05-16T08:59:23.444Z,10.00
2023-05-16T09:01:51.618Z,9.93
2023-05-16T09:04:19.506Z,10.08
2023-05-16T09:06:49.276Z,10.07
2023-05-16T09:09:16.918Z,9.98
2023-05-16T09:11:46.016Z,10.01
2023-05-16T09:14:14.177Z,10.21
2023-05-16T09:16:41.929Z,10.00
2023-05-16T09:19:14.078Z,9.97
2023-05-16T09:21:41.878Z,10.07
2023-05-16T09:24:10.765Z,10.02
2023-05-16T09:26:39.511Z,10.12
2023-05-16T09:29:13.222Z,10.19
2023-05-16T09:31:41.279Z,10.05
2023-05-16T09:34:11.161Z,10.15
2023-05-16T09:36:39.653Z,10.27
2023-05-16T09:39:08.597Z,10.19
2023-05-16T09:41:36.675Z,10.27
2023-05-16T09:44:05.613Z,10.34
2023-05-16T09:46:38.425Z,10.14
2023-05-16T09:49:06.249Z,10.21
2023-05-16T09:51:34.706Z,10.02
2023-05-16T09:54:02.427Z,10.16
2023-05-16T09:56:30.715Z,10.09
2023-05-16T09:58:58.460Z,10.08
2023-05-16T10:01:26.166Z,10.08
2023-05-16T10:03:55.439Z,10.24
2023-05-16T10:06:23.512Z,10.14
2023-05-16T10:08:52.117Z,10.14
2023-05-16T10:11:20.297Z,10.11
2023-05-16T10:13:53.001Z,10.26
2023-05-16T10:16:23.030Z,10.18
2023-05-16T10:18:51.394Z,10.22
2023-05-16T10:21:20.803Z,10.30
2023-05-16T10:23:49.785Z,10.46
2023-05-16T10:26:18.455Z,10.54
2023-05-16T10:28:46.638Z,10.56
2023-05-16T10:31:15.177Z,10.44
2023-05-16T10:33:42.984Z,10.56
2023-05-16T10:36:11.194Z,10.60
2023-05-16T10:38:40.766Z,10.74
2023-05-16T10:41:08.862Z,10.47
2023-05-16T10:43:36.941Z,10.62
2023-05-16T10:46:06.236Z,10.68
2023-05-16T10:48:35.765Z,10.79
2023-05-16T10:51:04.353Z,10.79
2023-05-16T10:53:33.935Z,10.74
2023-05-16T10:56:13.170Z,10.79
2023-05-16T10:58:45.115Z,10.76
2023-05-16T11:01:20.673Z,10.93
2023-05-16T11:04:10.097Z,11.09
2023-05-16T11:06:46.835Z,11.02
2023-05-16T11:09:26.584Z,11.21
2023-05-16T11:12:00.691Z,11.42
2023-05-16T11:14:32.000Z,11.42
2023-05-16T11:17:04.266Z,11.56
2023-05-16T11:19:34.223Z,11.58
2023-05-16T11:22:12.504Z,11.85
2023-05-16T11:24:41.032Z,11.92
2023-05-16T11:27:10.012Z,11.98
2023-05-16T11:29:38.115Z,12.07
2023-05-16T11:32:06.550Z,12.29
2023-05-16T11:34:37.658Z,12.53
2023-05-16T11:37:05.669Z,12.74
2023-05-16T11:39:34.350Z,13.10
2023-05-16T11:42:02.459Z,13.38
2023-05-16T11:44:32.024Z,13.75
2023-05-16T11:47:01.253Z,13.82
2023-05-16T11:49:29.165Z,13.71
2023-05-16T11:51:57.681Z,14.21
2023-05-16T11:54:25.601Z,14.14
2023-05-16T11:56:53.451Z,14.15
2023-05-16T11:59:21.645Z,14.17
2023-05-16T12:01:51.071Z,13.92
2023-05-16T12:04:20.730Z,14.20
2023-05-16T12:07:00.574Z,14.50
2023-05-16T12:09:28.394Z,14.63
2023-05-16T12:11:56.189Z,14.40
2023-05-16T12:14:24.261Z,14.60
2023-05-16T12:16:53.704Z,14.71
2023-05-16T12:19:22.345Z,14.40
2023-05-16T12:21:54.206Z,14.36
2023-05-16T12:24:22.144Z,14.52
2023-05-16T12:26:49.891Z,14.49
2023-05-16T12:29:17.571Z,14.35
2023-05-16T12:31:45.629Z,14.56
2023-05-16T12:34:18.554Z,14.56
2023-05-16T12:36:46.220Z,14.38
2023-05-16T12:39:15.342Z,14.62
2023-05-16T12:41:43.662Z,15.06
2023-05-16T12:44:17.087Z,15.46
2023-05-16T12:46:46.164Z,15.55
2023-05-16T12:49:14.547Z,15.76
2023-05-16T12:51:49.861Z,15.52
2023-05-16T12:54:17.749Z,15.34
2023-05-16T12:56:46.149Z,15.07
2023-05-16T12:59:13.790Z,15.25
2023-05-16T13:01:42.041Z,15.40
2023-05-16T13:04:14.825Z,15.52
2023-05-16T13:06:57.572Z,15.90
2023-05-16T13:09:30.013Z,15.26
2023-05-16T13:11:59.560Z,14.81
2023-05-16T13:14:27.272Z,14.70
2023-05-16T13:16:55.000Z,14.64
2023-05-16T13:19:24.371Z,14.65
2023-05-16T13:21:53.543Z,14.82
2023-05-16T13:24:21.275Z,14.61
2023-05-16T13:26:48.885Z,14.47
2023-05-16T13:29:16.601Z,14.91
2023-05-16T13:31:44.769Z,15.40
2023-05-16T13:34:12.647Z,15.44
2023-05-16T13:36:52.925Z,15.49
2023-05-16T13:39:23.198Z,15.28
2023-05-16T13:41:51.401Z,15.16
2023-05-16T13:44:19.071Z,14.99
2023-05-16T13:46:46.912Z,15.19
2023-05-16T13:49:14.641Z,14.79
2023-05-16T13:51:42.353Z,14.52
2023-05-16T13:54:10.029Z,14.53
2023-05-16T13:56:39.116Z,14.38
2023-05-16T13:59:07.472Z,14.46
2023-05-16T14:01:36.588Z,14.48
2023-05-16T14:04:04.694Z,14.89
2023-05-16T14:06:33.425Z,14.88
2023-05-16T14:09:01.319Z,14.91
2023-05-16T14:11:29.694Z,14.77
2023-05-16T14:13:59.546Z,14.71
2023-05-16T14:16:27.536Z,14.69
2023-05-16T14:18:55.405Z,14.48
2023-05-16T14:21:23.224Z,14.00
2023-05-16T14:23:51.046Z,14.23
2023-05-16T14:26:22.460Z,14.25
2023-05-16T14:28:50.086Z,14.41
2023-05-16T14:31:19.377Z,14.75
2023-05-16T14:33:47.983Z,14.61
2023-05-16T14:36:16.141Z,14.32
2023-05-16T14:38:43.755Z,14.15
2023-05-16T14:41:11.466Z,14.30
2023-05-16T14:43:39.182Z,14.36
2023-05-16T14:46:06.963Z,14.69
2023-05-16T14:48:36.526Z,14.95
2023-05-16T14:51:04.814Z,15.24
2023-05-16T14:53:32.758Z,15.41
2023-05-16T14:56:02.706Z,15.29
2023-05-16T14:58:30.677Z,15.18
2023-05-16T15:00:58.561Z,15.17
2023-05-16T15:03:26.430Z,14.53
2023-05-16T15:05:55.641Z,14.28
2023-05-16T15:08:23.355Z,14.28
2023-05-16T15:10:50.976Z,14.41
2023-05-16T15:13:18.627Z,14.40
2023-05-16T15:15:46.267Z,14.36
2023-05-16T15:18:13.936Z,14.39
2023-05-16T15:20:41.645Z,14.39
2023-05-16T15:23:10.636Z,14.33
2023-05-16T15:25:38.294Z,14.13
2023-05-16T15:28:07.203Z,14.25
2023-05-16T15:30:35.612Z,14.46
2023-05-16T15:33:03.399Z,14.52
2023-05-16T15:35:31.389Z,14.77
2023-05-16T15:37:59.727Z,14.58
2023-05-16T15:40:29.325Z,14.36
2023-05-16T15:42:57.040Z,14.10
2023-05-16T15:45:24.980Z,14.20
2023-05-16T15:47:52.756Z,14.07
2023-05-16T15:50:20.763Z,14.05
2023-05-16T15:52:48.502Z,14.04
2023-05-16T15:55:16.589Z,13.92
2023-05-16T15:57:46.349Z,13.64
2023-05-16T16:00:15.045Z,13.86
2023-05-16T16:02:45.279Z,13.81
2023-05-16T16:05:13.181Z,13.63
2023-05-16T16:07:40.875Z,13.74
2023-05-16T16:10:09.804Z,13.99
2023-05-16T16:12:37.680Z,13.90
2023-05-16T16:15:07.930Z,13.92
2023-05-16T16:17:35.729Z,14.04
2023-05-16T16:20:03.468Z,14.21
2023-05-16T16:22:31.342Z,14.06
2023-05-16T16:24:59.040Z,14.20
2023-05-16T16:27:26.665Z,14.38
2023-05-16T16:29:54.359Z,14.32
2023-05-16T16:32:23.461Z,14.33
2023-05-16T16:34:51.170Z,14.29
2023-05-16T16:37:18.813Z,14.13
2023-05-16T16:39:48.586Z,14.01
2023-05-16T16:42:16.656Z,13.96
2023-05-16T16:44:44.436Z,13.87
2023-05-16T16:47:12.382Z,13.84
2023-05-16T16:49:41.929Z,13.76
2023-05-16T16:52:09.812Z,13.49
2023-05-16T16:54:37.601Z,13.47
2023-05-16T16:57:05.643Z,13.49
2023-05-16T16:59:33.333Z,13.65
2023-05-16T17:02:00.990Z,13.56
2023-05-16T17:04:28.674Z,13.57
2023-05-16T17:06:57.694Z,13.58
2023-05-16T17:09:27.070Z,13.42
2023-05-16T17:11:54.788Z,13.40
2023-05-16T17:14:22.384Z,13.38
2023-05-16T17:16:50.151Z,13.45
2023-05-16T17:19:18.712Z,13.37
2023-05-16T17:21:47.431Z,13.44
2023-05-16T17:24:16.419Z,13.35
2023-05-16T17:26:44.043Z,13.39
2023-05-16T17:29:11.771Z,13.43
2023-05-16T17:31:39.470Z,13.51
2023-05-16T17:34:07.707Z,13.45
2023-05-16T17:36:36.368Z,13.48
2023-05-16T17:39:07.864Z,13.45
2023-05-16T17:41:36.919Z,13.45
2023-05-16T17:44:06.825Z,13.69
2023-05-16T17:46:34.842Z,13.79
2023-05-16T17:49:02.678Z,13.73
2023-05-16T17:51:30.787Z,13.76
2023-05-16T17:53:58.736Z,13.73
2023-05-16T17:56:27.090Z,13.50
2023-05-16T17:58:56.100Z,13.51
2023-05-16T18:01:23.763Z,13.46
2023-05-16T18:03:51.493Z,13.32
2023-05-16T18:06:19.667Z,13.09
2023-05-16T18:08:47.468Z,13.13
2023-05-16T18:11:15.240Z,13.06
2023-05-16T18:13:44.094Z,13.06
2023-05-16T18:16:13.315Z,13.00
2023-05-16T18:18:41.784Z,12.94
2023-05-16T18:21:09.837Z,12.80
2023-05-16T18:23:38.417Z,12.71
2023-05-16T18:26:06.334Z,12.66
2023-05-16T18:28:34.121Z,12.60
2023-05-16T18:31:03.930Z,12.59
2023-05-16T18:33:33.202Z,12.40
2023-05-16T18:36:01.188Z,12.33
2023-05-16T18:38:33.020Z,12.22
2023-05-16T18:41:02.002Z,12.08
2023-05-16T18:43:30.706Z,12.13
2023-05-16T18:45:59.053Z,12.05
2023-05-16T18:48:27.295Z,11.87
2023-05-16T18:50:57.038Z,11.83
2023-05-16T18:53:25.176Z,11.81
2023-05-16T18:55:53.268Z,11.73
2023-05-16T18:58:21.341Z,11.85
2023-05-16T19:00:49.496Z,11.64
2023-05-16T19:03:17.598Z,11.68
2023-05-16T19:05:46.090Z,11.69
2023-05-16T19:08:15.627Z,11.59
2023-05-16T19:10:43.634Z,11.39
2023-05-16T19:13:11.768Z,11.36
2023-05-16T19:15:39.737Z,11.33
2023-05-16T19:18:08.178Z,11.46
2023-05-16T19:20:36.784Z,11.33
2023-05-16T19:23:12.187Z,11.28
2023-05-16T19:25:47.095Z,11.22
2023-05-16T19:28:15.206Z,11.15
2023-05-16T19:30:43.266Z,11.08
2023-05-16T19:33:11.474Z,11.08
2023-05-16T19:35:39.725Z,11.03
2023-05-16T19:38:07.733Z,11.00
2023-05-16T19:40:35.979Z,11.06
2023-05-16T19:43:05.760Z,10.99
2023-05-16T19:45:33.718Z,10.86
2023-05-16T19:48:01.776Z,10.86
2023-05-16T19:50:29.845Z,10.68
2023-05-16T19:52:57.898Z,10.85
2023-05-16T19:55:27.594Z,10.74
2023-05-16T19:57:56.584Z,10.75
2023-05-16T20:00:26.438Z,10.58
2023-05-16T20:02:54.690Z,10.56
2023-05-16T20:05:23.410Z,10.56
2023-05-16T20:07:51.866Z,10.45
2023-05-16T20:10:21.932Z,10.48
2023-05-16T20:12:50.138Z,10.45
2023-05-16T20:15:19.028Z,10.48
2023-05-16T20:17:48.799Z,10.41
2023-05-16T20:20:17.198Z,10.35
2023-05-16T20:22:45.237Z,10.30
2023-05-16T20:25:13.426Z,10.34
2023-05-16T20:27:41.813Z,10.27
2023-05-16T20:30:10.898Z,10.25
2023-05-16T20:32:38.930Z,10.22
2023-05-16T20:35:11.215Z,10.20
2023-05-16T20:37:39.309Z,10.14
2023-05-16T20:40:10.903Z,10.11
2023-05-16T20:42:39.165Z,9.97
2023-05-16T20:45:08.173Z,9.93
2023-05-16T20:47:36.063Z,9.98
2023-05-16T20:50:04.158Z,9.89
2023-05-16T20:52:33.704Z,9.90
2023-05-16T20:55:02.534Z,9.92
2023-05-16T20:57:30.368Z,9.82
2023-05-16T20:59:58.446Z,9.85
2023-05-16T21:02:26.392Z,9.86
2023-05-16T21:04:54.628Z,9.82
2023-05-16T21:07:23.318Z,9.75
2023-05-16T21:09:52.951Z,9.74
2023-05-16T21:12:21.187Z,9.69
2023-05-16T21:14:49.699Z,9.60
2023-05-16T21:17:17.660Z,9.68
2023-05-16T21:19:45.672Z,9.56
2023-05-16T21:22:13.756Z,9.56
2023-05-16T21:24:41.801Z,9.56
2023-05-16T21:27:11.662Z,9.50
2023-05-16T21:29:39.555Z,9.43
2023-05-16T21:32:09.129Z,9.46
2023-05-16T21:34:36.982Z,9.42
2023-05-16T21:37:07.211Z,9.47
2023-05-16T21:39:35.290Z,9.42
2023-05-16T21:42:03.473Z,9.33
2023-05-16T21:44:33.017Z,9.34
2023-05-16T21:47:01.033Z,9.29
2023-05-16T21:49:29.171Z,9.23
2023-05-16T21:51:57.254Z,9.28
2023-05-16T21:54:25.656Z,9.23
2023-05-16T21:56:53.584Z,9.24
2023-05-16T21:59:21.849Z,9.08
2023-05-16T22:01:51.200Z,9.10
2023-05-16T22:04:19.260Z,9.14
2023-05-16T22:06:47.354Z,9.14
2023-05-16T22:09:15.383Z,9.18
2023-05-16T22:11:43.348Z,9.24
2023-05-16T22:14:11.493Z,9.16
2023-05-16T22:16:39.665Z,9.14
2023-05-16T22:19:09.255Z,9.10
2023-05-16T22:21:37.759Z,9.15
2023-05-16T22:24:06.383Z,9.13
2023-05-16T22:26:34.231Z,9.19
2023-05-16T22:29:02.287Z,9.12
2023-05-16T22:31:30.172Z,9.12
2023-05-16T22:33:58.191Z,9.12
2023-05-16T22:36:27.614Z,9.17
2023-05-16T22:38:55.810Z,9.13
2023-05-16T22:41:23.657Z,8.98
2023-05-16T22:43:51.567Z,9.03
2023-05-16T22:46:19.461Z,9.04
2023-05-16T22:48:47.558Z,8.91
2023-05-16T22:51:16.024Z,8.91
2023-05-16T22:53:45.608Z,8.98
2023-05-16T22:56:14.293Z,8.98
2023-05-16T22:58:42.681Z,8.99
2023-05-16T23:01:10.633Z,8.90
2023-05-16T23:03:38.724Z,8.96
2023-05-16T23:06:07.298Z,8.90
2023-05-16T23:08:35.574Z,8.93
2023-05-16T23:11:05.351Z,8.99
2023-05-16T23:13:33.545Z,9.03
2023-05-16T23:16:01.645Z,9.00
2023-05-16T23:18:29.733Z,8.97
2023-05-16T23:20:57.805Z,9.09
2023-05-16T23:23:26.191Z,8.95
2023-05-16T23:25:54.206Z,8.98
2023-05-16T23:28:23.360Z,9.09
2023-05-16T23:30:51.274Z,9.06
2023-05-16T23:33:19.202Z,9.03
2023-05-16T23:35:46.846Z,9.03
2023-05-16T23:38:14.466Z,9.04
2023-05-16T23:40:42.062Z,9.02
2023-05-16T23:43:09.770Z,8.96
2023-05-16T23:45:38.757Z,8.98
2023-05-16T23:48:07.019Z,9.01
2023-05-16T23:50:34.804Z,8.98
2023-05-16T23:53:02.447Z,9.01
2023-05-16T23:55:30.322Z,8.96
2023-05-16T23:57:57.909Z,8.77
